Time;durP1;ratioP1;P1;durP2;ratioP2;P2;SDS_P1;SDS_P2;PMS_P1;PMS_P2;Temp;Humidity;BMP_temperature;BMP_pressure;BME280_temperature;BME280_humidity;BME280_pressure;Samples;Min_cycle;Max_cycle;Signal;HPM_P1;HPM_P2
2021/01/12 00:02:22;;;;;;;10.60;7.20;;;1.40;99.90;;;;;;5027638;28;20475;-90
2021/01/12 00:04:48;;;;;;;15.00;7.93;;;1.50;99.90;;;;;;5012972;28;20452;-88
2021/01/12 00:07:18;;;;;;;10.63;7.77;;;1.60;99.90;;;;;;5003001;28;20868;-88
2021/01/12 00:09:44;;;;;;;14.23;8.40;;;1.70;99.90;;;;;;5000044;28;21094;-88
2021/01/12 00:12:09;;;;;;;14.43;8.70;;;1.80;99.90;;;;;;5006159;28;20464;-89
2021/01/12 00:14:35;;;;;;;11.80;7.10;;;1.90;99.90;;;;;;5021096;28;20262;-91
2021/01/12 00:17:03;;;;;;;14.93;8.20;;;2.00;99.90;;;;;;5012541;28;20209;-91
2021/01/12 00:19:29;;;;;;;16.07;7.77;;;2.10;99.90;;;;;;5028329;28;20651;-90
2021/01/12 00:21:56;;;;;;;11.10;7.30;;;2.20;99.90;;;;;;5016557;28;20723;-91
2021/01/12 00:24:22;;;;;;;11.37;7.20;;;2.10;99.90;;;;;;5015407;28;20502;-91
2021/01/12 00:26:48;;;;;;;14.60;9.00;;;2.20;99.90;;;;;;5029917;28;20438;-91
2021/01/12 00:29:14;;;;;;;9.30;6.50;;;2.20;99.90;;;;;;5028868;28;20449;-91
2021/01/12 00:31:41;;;;;;;14.00;8.00;;;2.20;99.90;;;;;;5008623;28;20465;-92
2021/01/12 00:34:07;;;;;;;11.87;7.07;;;2.20;99.90;;;;;;5012589;28;20204;-88
2021/01/12 00:36:39;;;;;;;10.80;7.57;;;2.30;99.90;;;;;;5014218;28;20420;-89
2021/01/12 00:39:05;;;;;;;10.87;6.87;;;2.30;99.90;;;;;;5015192;28;20454;-91
2021/01/12 00:41:31;;;;;;;13.97;7.90;;;2.30;99.90;;;;;;5029429;28;20424;-91
2021/01/12 00:43:59;;;;;;;11.77;6.90;;;2.30;99.90;;;;;;5011259;28;20209;-86
2021/01/12 00:46:25;;;;;;;17.87;8.47;;;2.30;99.90;;;;;;5013245;28;20504;-88
2021/01/12 00:48:51;;;;;;;11.30;7.67;;;2.30;99.90;;;;;;5012309;28;20463;-88
2021/01/12 00:51:17;;;;;;;15.57;7.33;;;2.30;99.90;;;;;;4994076;28;20181;-89
2021/01/12 00:53:42;;;;;;;10.87;6.60;;;2.40;99.90;;;;;;4989432;28;20251;-85
2021/01/12 00:56:13;;;;;;;11.27;7.93;;;2.30;99.90;;;;;;5008094;28;20198;-89
2021/01/12 00:58:38;;;;;;;13.80;7.10;;;2.40;99.90;;;;;;4992798;28;20300;-88
2021/01/12 01:01:05;;;;;;;10.43;7.50;;;2.40;99.90;;;;;;5007753;28;20565;-89
2021/01/12 01:03:33;;;;;;;10.90;7.30;;;2.30;99.90;;;;;;5006876;28;20235;-90
2021/01/12 01:06:05;;;;;;;13.07;8.00;;;2.30;99.90;;;;;;5007136;28;21173;-87
2021/01/12 01:08:31;;;;;;;12.60;8.33;;;2.40;99.90;;;;;;4989724;28;20593;-90
2021/01/12 01:10:56;;;;;;;10.13;6.17;;;2.30;99.90;;;;;;4991489;28;20466;-86
2021/01/12 01:13:23;;;;;;;12.40;7.97;;;2.30;99.90;;;;;;4996061;28;20370;-89
2021/01/12 01:15:49;;;;;;;9.33;5.67;;;2.30;99.90;;;;;;4993810;28;20227;-86
2021/01/12 01:18:15;;;;;;;10.90;5.60;;;2.30;99.90;;;;;;5006670;28;20507;-89
2021/01/12 01:20:41;;;;;;;13.93;7.40;;;2.30;99.90;;;;;;5005639;28;20515;-89
2021/01/12 01:23:07;;;;;;;12.60;7.43;;;2.30;99.90;;;;;;4993373;28;20483;-90
2021/01/12 01:25:32;;;;;;;14.63;7.57;;;2.40;99.90;;;;;;5007147;28;20681;-89
2021/01/12 01:27:58;;;;;;;17.53;7.43;;;2.40;99.90;;;;;;4990321;28;20243;-89
2021/01/12 01:30:24;;;;;;;13.47;7.10;;;2.40;99.90;;;;;;4990178;28;20655;-88
2021/01/12 01:32:50;;;;;;;8.77;6.27;;;2.50;99.90;;;;;;5005523;28;20295;-85
2021/01/12 01:35:18;;;;;;;9.20;6.13;;;2.50;99.90;;;;;;5011215;28;20191;-89
2021/01/12 01:37:44;;;;;;;10.70;6.17;;;2.50;99.90;;;;;;5003385;28;21249;-88
2021/01/12 01:40:10;;;;;;;13.77;8.03;;;2.50;99.90;;;;;;5008258;28;20524;-88
2021/01/12 01:42:36;;;;;;;9.63;6.70;;;2.50;99.90;;;;;;5005693;28;20200;-87
2021/01/12 01:45:08;;;;;;;11.90;6.83;;;2.50;99.90;;;;;;5006243;28;20563;-86
2021/01/12 01:47:34;;;;;;;8.93;5.73;;;2.50;99.90;;;;;;4990703;28;20467;-90
2021/01/12 01:50:00;;;;;;;7.77;5.10;;;2.50;99.90;;;;;;5003340;28;20422;-90
2021/01/12 01:52:27;;;;;;;11.37;7.20;;;2.50;99.90;;;;;;4990811;28;20456;-88
2021/01/12 01:54:56;;;;;;;10.50;7.30;;;2.50;99.90;;;;;;5008499;28;20522;-87
2021/01/12 01:57:22;;;;;;;10.53;7.10;;;2.50;99.90;;;;;;5011375;28;20534;-88
2021/01/12 01:59:49;;;;;;;10.97;6.40;;;2.50;99.90;;;;;;5014732;28;20440;-88
2021/01/12 02:02:18;;;;;;;12.33;7.40;;;2.50;99.90;;;;;;5021686;28;20213;-88
2021/01/12 02:04:45;;;;;;;8.53;6.97;;;2.50;99.90;;;;;;5019872;28;20432;-88
2021/01/12 02:07:14;;;;;;;13.40;8.20;;;2.40;99.90;;;;;;5001998;28;20455;-88
2021/01/12 02:09:52;;;;;;;10.57;7.13;;;2.50;99.90;;;;;;5015798;28;20431;-88
2021/01/12 02:12:26;;;;;;;10.10;5.87;;;2.50;99.90;;;;;;5008949;28;20466;-89
2021/01/12 02:14:54;;;;;;;10.93;6.37;;;2.50;99.90;;;;;;5011500;28;20423;-88
2021/01/12 02:17:20;;;;;;;14.27;7.07;;;2.60;99.90;;;;;;4992065;28;20468;-90
2021/01/12 02:19:46;;;;;;;9.03;5.80;;;2.60;99.90;;;;;;5013164;28;20433;-87
2021/01/12 02:22:19;;;;;;;12.60;6.00;;;2.60;99.90;;;;;;4995137;28;20536;-89
2021/01/12 02:24:45;;;;;;;8.90;5.77;;;2.70;99.90;;;;;;5008581;28;20440;-90
2021/01/12 02:27:11;;;;;;;12.77;6.50;;;2.70;99.90;;;;;;4975965;28;21080;-88
2021/01/12 02:29:39;;;;;;;12.07;7.20;;;2.70;99.90;;;;;;4998178;28;20444;-87
2021/01/12 02:32:05;;;;;;;11.23;6.27;;;2.70;99.90;;;;;;4975156;28;20201;-90
2021/01/12 02:34:32;;;;;;;13.40;6.50;;;2.70;99.90;;;;;;4998762;28;20494;-88
2021/01/12 02:37:00;;;;;;;10.60;5.93;;;2.70;99.90;;;;;;4994128;28;20930;-88
2021/01/12 02:39:25;;;;;;;9.20;6.13;;;2.70;99.90;;;;;;4991157;28;20440;-87
2021/01/12 02:41:51;;;;;;;9.40;6.50;;;2.60;99.90;;;;;;4996697;28;20435;-88
2021/01/12 02:44:24;;;;;;;8.30;6.30;;;2.70;99.90;;;;;;4994320;28;20485;-88
2021/01/12 02:46:52;;;;;;;10.63;7.10;;;2.70;99.90;;;;;;4994528;28;20189;-92
2021/01/12 02:49:18;;;;;;;11.53;5.90;;;2.60;99.90;;;;;;4993779;28;20826;-87
2021/01/12 02:51:44;;;;;;;11.80;7.47;;;2.60;99.90;;;;;;4997556;28;20425;-87
2021/01/12 02:54:10;;;;;;;13.03;7.47;;;2.50;99.90;;;;;;5011658;28;20482;-89
2021/01/12 02:56:36;;;;;;;11.10;6.40;;;2.50;99.90;;;;;;5011527;28;20428;-86
2021/01/12 02:59:02;;;;;;;13.57;6.93;;;2.40;99.90;;;;;;4993934;28;20606;-86
2021/01/12 03:01:28;;;;;;;12.63;8.10;;;2.40;99.90;;;;;;5012664;28;20496;-88
2021/01/12 03:03:55;;;;;;;15.03;6.57;;;2.50;99.90;;;;;;4994370;28;20554;-86
2021/01/12 03:06:23;;;;;;;14.70;7.60;;;2.50;99.90;;;;;;4989348;28;20435;-87
2021/01/12 03:08:49;;;;;;;10.77;5.90;;;2.50;99.90;;;;;;5007912;28;20470;-88
2021/01/12 03:11:15;;;;;;;12.20;7.07;;;2.50;99.90;;;;;;4993125;28;20431;-87
2021/01/12 03:13:40;;;;;;;12.70;7.10;;;2.50;99.90;;;;;;4991428;28;20220;-87
2021/01/12 03:16:06;;;;;;;12.23;6.97;;;2.50;99.90;;;;;;5011365;28;20189;-85
2021/01/12 03:18:38;;;;;;;9.57;6.20;;;2.40;99.90;;;;;;4992266;28;20707;-88
2021/01/12 03:21:04;;;;;;;7.23;5.63;;;2.50;99.90;;;;;;5008600;28;20188;-90
2021/01/12 03:23:29;;;;;;;12.40;6.27;;;2.40;99.90;;;;;;4994936;28;20513;-88
2021/01/12 03:25:55;;;;;;;9.90;6.63;;;2.50;99.90;;;;;;4996124;28;20435;-88
2021/01/12 03:28:21;;;;;;;12.63;6.57;;;2.50;99.90;;;;;;4993408;28;20211;-87
2021/01/12 03:30:47;;;;;;;10.60;6.67;;;2.50;99.90;;;;;;5012791;28;20211;-88
2021/01/12 03:33:13;;;;;;;9.53;6.67;;;2.50;99.90;;;;;;4990944;28;20454;-89
2021/01/12 03:35:39;;;;;;;10.87;6.63;;;2.60;99.90;;;;;;4998437;28;21014;-88
2021/01/12 03:38:05;;;;;;;13.93;6.60;;;2.60;99.90;;;;;;4999012;28;20218;-89
2021/01/12 03:40:31;;;;;;;13.53;7.23;;;2.60;99.90;;;;;;5006841;28;20432;-87
2021/01/12 03:42:56;;;;;;;11.17;7.43;;;2.60;99.90;;;;;;5013102;28;20448;-88
2021/01/12 03:45:22;;;;;;;11.87;6.80;;;2.70;99.90;;;;;;5028916;28;20184;-90
2021/01/12 03:47:48;;;;;;;13.37;6.77;;;2.60;99.90;;;;;;5022694;28;20281;-87
2021/01/12 03:50:15;;;;;;;14.00;6.23;;;2.60;99.90;;;;;;5016199;28;20925;-88
2021/01/12 03:52:41;;;;;;;10.27;6.33;;;2.60;99.90;;;;;;4994572;28;20203;-88
2021/01/12 03:55:07;;;;;;;10.70;7.33;;;2.60;99.90;;;;;;5011511;28;20431;-90
2021/01/12 03:57:33;;;;;;;12.27;6.90;;;2.60;99.90;;;;;;4994486;28;20236;-86
2021/01/12 03:59:59;;;;;;;10.67;6.17;;;2.60;99.90;;;;;;4991090;28;20467;-91
2021/01/12 04:12:46;;;;;;;7.63;5.70;;;2.80;99.90;;;;;;1425715;26;21143;-90
2021/01/12 04:15:12;;;;;;;9.83;6.03;;;2.80;99.90;;;;;;5007914;28;20446;-89
2021/01/12 04:17:42;;;;;;;7.30;4.03;;;2.80;99.90;;;;;;5010256;28;20465;-90
2021/01/12 04:20:08;;;;;;;7.50;4.60;;;2.80;99.90;;;;;;5003388;28;20479;-89
2021/01/12 04:22:52;;;;;;;11.13;5.70;;;2.90;99.90;;;;;;5004680;28;20470;-87
2021/01/12 04:25:19;;;;;;;10.27;5.83;;;2.90;99.90;;;;;;4990006;28;20814;-87
2021/01/12 04:27:48;;;;;;;10.33;5.80;;;2.90;99.90;;;;;;4992908;28;20443;-88
2021/01/12 04:30:46;;;;;;;10.80;6.50;;;2.90;99.90;;;;;;5002373;28;20432;-88
2021/01/12 04:33:12;;;;;;;7.47;4.70;;;2.90;99.90;;;;;;4993068;28;21061;-89
2021/01/12 04:35:47;;;;;;;9.37;5.90;;;2.90;99.90;;;;;;4997591;28;20429;-88
2021/01/12 04:38:13;;;;;;;9.20;5.87;;;2.90;99.90;;;;;;4993091;28;20543;-87
2021/01/12 04:40:39;;;;;;;10.80;6.00;;;2.90;99.90;;;;;;4992496;28;20506;-85
2021/01/12 04:43:06;;;;;;;10.23;5.17;;;2.80;99.90;;;;;;4997455;28;20440;-86
2021/01/12 04:45:32;;;;;;;6.70;4.50;;;2.70;99.90;;;;;;4988352;28;20487;-88
2021/01/12 04:47:58;;;;;;;9.30;5.40;;;2.70;99.90;;;;;;4992926;28;20930;-87
2021/01/12 04:50:30;;;;;;;7.73;4.50;;;2.60;99.90;;;;;;5009170;28;20444;-87
2021/01/12 04:52:56;;;;;;;8.03;4.47;;;2.60;99.90;;;;;;4991083;28;20457;-87
2021/01/12 04:55:23;;;;;;;7.20;4.90;;;2.60;99.90;;;;;;5006849;28;20440;-87
2021/01/12 04:57:54;;;;;;;6.90;4.10;;;2.50;99.90;;;;;;4993269;28;20459;-86
2021/01/12 05:00:27;;;;;;;7.23;4.70;;;2.50;99.90;;;;;;4991749;28;20969;-89
2021/01/12 05:03:05;;;;;;;7.57;3.80;;;2.50;99.90;;;;;;4988678;28;20592;-88
2021/01/12 05:05:35;;;;;;;7.60;5.50;;;2.40;99.90;;;;;;4988807;28;20475;-85
2021/01/12 05:08:21;;;;;;;8.93;5.50;;;2.40;99.90;;;;;;4990887;28;20528;-86
2021/01/12 05:10:50;;;;;;;8.03;4.80;;;2.30;99.90;;;;;;5008540;28;20478;-88
2021/01/12 05:13:23;;;;;;;8.53;4.53;;;2.30;99.90;;;;;;4988285;28;20544;-87
2021/01/12 05:15:52;;;;;;;10.53;5.60;;;2.40;99.90;;;;;;4991825;28;20449;-87
2021/01/12 05:18:19;;;;;;;9.50;4.30;;;2.30;99.90;;;;;;4989548;28;20476;-87
2021/01/12 05:20:50;;;;;;;7.83;5.00;;;2.30;99.90;;;;;;4992994;28;20519;-87
2021/01/12 05:23:29;;;;;;;6.80;5.27;;;2.30;99.90;;;;;;4992396;28;20444;-89
2021/01/12 05:26:00;;;;;;;4.57;4.13;;;2.20;99.90;;;;;;4990979;28;20435;-87
2021/01/12 05:28:29;;;;;;;9.73;4.47;;;2.10;99.90;;;;;;4989168;28;20520;-86
2021/01/12 05:31:00;;;;;;;7.87;4.53;;;2.10;99.90;;;;;;4989273;28;20428;-90
2021/01/12 05:39:36;;;;;;;9.53;5.60;;;1.80;99.90;;;;;;1868648;23;20955;-89
2021/01/12 05:42:06;;;;;;;8.10;4.80;;;1.70;99.90;;;;;;5007471;28;20455;-88
2021/01/12 05:44:38;;;;;;;8.27;5.80;;;1.70;99.90;;;;;;5004332;28;20745;-89
2021/01/12 05:47:05;;;;;;;5.37;3.70;;;1.60;99.90;;;;;;5006647;28;20435;-88
2021/01/12 05:49:31;;;;;;;8.13;5.73;;;1.60;99.90;;;;;;4990451;28;20516;-90
2021/01/12 05:51:57;;;;;;;6.83;5.23;;;1.70;99.90;;;;;;4989706;28;20560;-89
2021/01/12 05:54:33;;;;;;;11.00;5.80;;;1.70;99.90;;;;;;5006195;28;20831;-93
2021/01/12 05:57:03;;;;;;;5.00;3.57;;;1.70;99.90;;;;;;5006902;28;20592;-90
2021/01/12 05:59:31;;;;;;;11.67;6.37;;;1.70;99.90;;;;;;5006988;28;20521;-90
2021/01/12 06:02:14;;;;;;;9.13;4.80;;;1.70;99.90;;;;;;4988723;28;20828;-87
2021/01/12 06:04:42;;;;;;;9.23;5.43;;;1.70;99.90;;;;;;4990582;28;20440;-92
2021/01/12 06:07:11;;;;;;;11.37;6.13;;;1.70;99.90;;;;;;4991255;28;20442;-89
2021/01/12 06:09:37;;;;;;;9.63;5.47;;;1.70;99.90;;;;;;4975167;28;20431;-88
2021/01/12 06:12:19;;;;;;;9.00;5.60;;;1.70;99.90;;;;;;4991045;28;20427;-89
2021/01/12 06:14:49;;;;;;;9.60;6.10;;;1.70;99.90;;;;;;5005189;28;20498;-89
2021/01/12 06:17:16;;;;;;;11.30;6.43;;;1.80;99.90;;;;;;4992200;28;20452;-88
2021/01/12 06:19:47;;;;;;;7.60;4.83;;;1.80;99.90;;;;;;4994947;28;20928;-90
2021/01/12 06:22:18;;;;;;;6.23;4.83;;;1.80;99.90;;;;;;4976109;28;20526;-90
2021/01/12 06:24:52;;;;;;;7.73;4.60;;;1.80;99.90;;;;;;5008649;28;20952;-89
2021/01/12 06:27:23;;;;;;;9.07;5.73;;;1.80;99.90;;;;;;4989585;28;21406;-94
2021/01/12 06:29:51;;;;;;;7.83;5.73;;;1.90;99.90;;;;;;4987370;28;20443;-89
2021/01/12 06:32:28;;;;;;;5.80;4.53;;;1.80;99.90;;;;;;4989787;28;20578;-90
2021/01/12 06:35:08;;;;;;;8.10;4.97;;;1.80;99.90;;;;;;5005027;28;20455;-89
2021/01/12 06:37:39;;;;;;;6.37;3.80;;;1.80;99.90;;;;;;4991127;28;20501;-90
2021/01/12 06:40:08;;;;;;;6.77;4.60;;;1.80;99.90;;;;;;4987498;28;21269;-90
2021/01/12 06:42:35;;;;;;;7.03;4.90;;;1.70;99.90;;;;;;4989564;28;20448;-88
2021/01/12 06:45:08;;;;;;;7.03;5.17;;;1.70;99.90;;;;;;4987005;28;20420;-89
2021/01/12 06:47:35;;;;;;;5.03;3.53;;;1.70;99.90;;;;;;5006963;28;20444;-89
2021/01/12 06:50:10;;;;;;;5.67;3.53;;;1.70;99.90;;;;;;5005983;28;20985;-91
2021/01/12 06:52:49;;;;;;;6.00;4.90;;;1.70;99.90;;;;;;5005989;28;20466;-90
2021/01/12 06:55:17;;;;;;;9.07;5.10;;;1.80;99.90;;;;;;4986239;28;20594;-88
2021/01/12 06:57:45;;;;;;;5.17;4.40;;;1.80;99.90;;;;;;4985917;28;20497;-86
2021/01/12 07:00:12;;;;;;;7.20;4.23;;;1.80;99.90;;;;;;5005763;28;20455;-87
2021/01/12 07:02:41;;;;;;;6.27;3.60;;;1.80;99.90;;;;;;5004363;28;20484;-85
2021/01/12 07:05:07;;;;;;;10.37;4.93;;;1.80;99.90;;;;;;5001796;28;20747;-87
2021/01/12 07:07:48;;;;;;;5.87;4.97;;;1.70;99.90;;;;;;5005269;28;20443;-90
2021/01/12 07:10:22;;;;;;;8.27;5.53;;;1.70;99.90;;;;;;5004653;28;20192;-88
2021/01/12 07:12:49;;;;;;;9.57;5.20;;;1.80;99.90;;;;;;5005065;28;20530;-89
2021/01/12 07:15:25;;;;;;;6.17;5.00;;;1.80;99.90;;;;;;4989146;28;20453;-88
2021/01/12 07:17:53;;;;;;;6.23;3.93;;;1.80;99.90;;;;;;4988764;28;20469;-89
2021/01/12 07:20:24;;;;;;;6.20;4.53;;;1.80;99.90;;;;;;4988230;28;20482;-90
2021/01/12 07:22:56;;;;;;;5.03;3.70;;;1.80;99.90;;;;;;4991719;28;20455;-90
2021/01/12 07:25:24;;;;;;;5.70;3.80;;;1.80;99.90;;;;;;4988333;28;20602;-90
2021/01/12 07:28:00;;;;;;;8.30;4.90;;;1.80;99.90;;;;;;5006512;28;20486;-89
2021/01/12 07:30:27;;;;;;;5.93;4.10;;;1.80;99.90;;;;;;5003925;28;20478;-91
2021/01/12 07:33:18;;;;;;;4.20;3.30;;;1.80;99.90;;;;;;4986187;28;20459;-88
2021/01/12 07:35:57;;;;;;;5.60;4.27;;;1.80;99.90;;;;;;4988849;28;20448;-87
2021/01/12 07:38:26;;;;;;;5.27;4.67;;;1.80;99.90;;;;;;5007449;28;20452;-91
2021/01/12 07:40:53;;;;;;;6.00;4.13;;;1.80;99.90;;;;;;5007798;28;20973;-89
2021/01/12 07:43:21;;;;;;;6.33;4.00;;;1.90;99.90;;;;;;4989236;28;20475;-92
2021/01/12 07:45:48;;;;;;;5.60;4.20;;;1.90;99.90;;;;;;4990047;28;20811;-89
2021/01/12 07:48:15;;;;;;;5.73;4.07;;;1.90;99.90;;;;;;5011186;28;20461;-89
2021/01/12 07:50:45;;;;;;;8.33;3.90;;;1.90;99.90;;;;;;4992185;28;20445;-88
2021/01/12 07:53:13;;;;;;;4.20;3.80;;;2.00;99.90;;;;;;4991868;28;21055;-88
2021/01/12 07:55:47;;;;;;;5.67;4.30;;;2.00;99.90;;;;;;4990400;28;20539;-87
2021/01/12 07:58:14;;;;;;;5.83;3.37;;;2.00;99.90;;;;;;4993142;28;20487;-87
2021/01/12 08:00:41;;;;;;;5.00;3.70;;;2.10;99.90;;;;;;4991047;28;20779;-91
2021/01/12 08:03:07;;;;;;;6.43;3.83;;;2.10;99.90;;;;;;5009532;28;20490;-89
2021/01/12 08:05:33;;;;;;;4.37;3.60;;;2.10;99.90;;;;;;4977668;28;20435;-92
2021/01/12 08:08:06;;;;;;;5.90;3.90;;;2.20;99.90;;;;;;4994541;28;20518;-90
2021/01/12 08:10:38;;;;;;;4.13;3.00;;;2.20;99.90;;;;;;5013263;28;20439;-89
2021/01/12 08:13:05;;;;;;;3.40;2.73;;;2.20;99.90;;;;;;4989736;28;20996;-92
2021/01/12 08:15:31;;;;;;;3.60;3.17;;;2.20;99.90;;;;;;4989782;28;20475;-90
2021/01/12 08:17:56;;;;;;;4.33;3.07;;;2.20;99.90;;;;;;4991790;28;20507;-90
2021/01/12 08:20:23;;;;;;;4.10;3.70;;;2.20;99.90;;;;;;4998140;28;20554;-88
2021/01/12 08:22:53;;;;;;;4.90;3.27;;;2.20;99.90;;;;;;4992888;28;20212;-91
2021/01/12 08:25:19;;;;;;;3.20;2.90;;;2.20;99.90;;;;;;5011881;28;20497;-87
2021/01/12 08:28:01;;;;;;;3.43;2.80;;;2.20;99.90;;;;;;5008170;28;20488;-91
2021/01/12 08:30:31;;;;;;;3.07;2.73;;;2.20;99.90;;;;;;4993749;28;20564;-90
2021/01/12 08:33:20;;;;;;;3.53;2.60;;;2.20;99.90;;;;;;4978793;28;20555;-91
2021/01/12 08:35:52;;;;;;;3.23;2.80;;;2.20;99.90;;;;;;4993833;28;20544;-87
2021/01/12 08:38:22;;;;;;;3.30;3.00;;;2.10;99.90;;;;;;5009647;28;20494;-89
2021/01/12 08:40:49;;;;;;;3.53;2.60;;;2.10;99.90;;;;;;4993061;28;20526;-90
2021/01/12 08:43:18;;;;;;;2.80;2.10;;;2.10;99.90;;;;;;5004206;28;20477;-89
2021/01/12 08:45:45;;;;;;;3.10;2.73;;;2.10;99.90;;;;;;5010523;28;20469;-89
2021/01/12 08:48:17;;;;;;;5.23;3.67;;;2.10;99.90;;;;;;4997332;28;20436;-92
2021/01/12 09:07:06;;;;;;;2.40;2.20;;;2.00;99.90;;;;;;5121605;22;20921;-91
2021/01/12 09:09:38;;;;;;;5.70;3.77;;;2.10;99.90;;;;;;4997437;28;21110;-90
2021/01/12 09:12:14;;;;;;;3.30;3.00;;;2.10;99.90;;;;;;5005840;28;20457;-90
2021/01/12 09:14:46;;;;;;;4.30;3.40;;;2.10;99.90;;;;;;4976037;28;20811;-88
2021/01/12 09:17:17;;;;;;;3.17;2.80;;;2.10;99.90;;;;;;4992273;28;20489;-90
2021/01/12 09:19:47;;;;;;;3.07;1.90;;;2.10;99.90;;;;;;4989151;28;20547;-89
2021/01/12 09:22:17;;;;;;;4.20;3.13;;;2.10;99.90;;;;;;4989437;28;20954;-88
2021/01/12 09:24:55;;;;;;;3.67;2.83;;;2.20;99.90;;;;;;4992960;28;20952;-86
2021/01/12 09:27:39;;;;;;;3.80;2.20;;;2.10;99.90;;;;;;4995863;28;20475;-87
2021/01/12 09:30:16;;;;;;;4.50;3.70;;;2.20;99.90;;;;;;4991673;28;20413;-87
2021/01/12 09:32:59;;;;;;;5.03;2.80;;;2.10;99.90;;;;;;4988897;28;20461;-87
2021/01/12 09:35:25;;;;;;;2.70;2.17;;;2.10;99.90;;;;;;4994022;28;20444;-88
2021/01/12 09:38:01;;;;;;;4.83;2.27;;;2.20;99.90;;;;;;4996834;28;20467;-87
2021/01/12 09:40:28;;;;;;;2.83;2.50;;;2.20;99.90;;;;;;5008587;28;20783;-91
2021/01/12 09:42:54;;;;;;;3.70;2.67;;;2.20;99.90;;;;;;4993878;28;20450;-87
2021/01/12 09:45:28;;;;;;;4.97;2.77;;;2.20;99.90;;;;;;4994682;28;20432;-87
2021/01/12 09:48:01;;;;;;;2.20;2.03;;;2.30;99.90;;;;;;4981015;28;20272;-88
2021/01/12 09:50:29;;;;;;;2.70;2.50;;;2.20;99.90;;;;;;4991298;28;20427;-87
2021/01/12 09:52:55;;;;;;;4.10;2.20;;;2.20;99.90;;;;;;4992135;28;20456;-87
2021/01/12 09:55:27;;;;;;;2.50;2.30;;;2.30;99.90;;;;;;4973636;28;20951;-87
2021/01/12 09:57:59;;;;;;;2.90;2.60;;;2.30;99.90;;;;;;4994145;28;20480;-87
2021/01/12 10:00:26;;;;;;;4.10;3.33;;;2.20;99.90;;;;;;4995334;28;20425;-88
2021/01/12 10:02:57;;;;;;;3.13;2.13;;;2.30;99.90;;;;;;4991767;28;20439;-87
2021/01/12 10:05:41;;;;;;;2.43;2.23;;;2.20;99.90;;;;;;4993641;28;20855;-87
2021/01/12 10:08:08;;;;;;;3.60;2.70;;;2.30;99.90;;;;;;5011893;28;20452;-88
2021/01/12 10:10:36;;;;;;;2.60;2.40;;;2.20;99.90;;;;;;4993138;28;20589;-87
2021/01/12 10:13:13;;;;;;;3.43;3.00;;;2.30;99.90;;;;;;4991822;28;20813;-86
2021/01/12 10:15:43;;;;;;;2.43;1.77;;;2.30;99.90;;;;;;4977226;28;21091;-88
2021/01/12 10:18:10;;;;;;;2.70;2.50;;;2.30;99.90;;;;;;4976572;28;20458;-87
2021/01/12 10:21:35;;;;;;;2.37;1.97;;;2.30;99.90;;;;;;4997905;28;20432;-87
2021/01/12 10:24:34;;;;;;;2.70;2.20;;;2.30;99.90;;;;;;4988684;28;20545;-87
2021/01/12 10:27:06;;;;;;;2.53;2.33;;;2.30;99.90;;;;;;5003293;28;21187;-92
2021/01/12 10:29:47;;;;;;;1.60;1.30;;;2.30;99.90;;;;;;4989302;28;20529;-87
2021/01/12 10:32:21;;;;;;;2.53;2.33;;;2.30;99.90;;;;;;4995063;28;20800;-89
2021/01/12 10:35:16;;;;;;;1.77;1.67;;;2.30;99.90;;;;;;4996640;28;20441;-89
2021/01/12 10:37:48;;;;;;;1.90;1.80;;;2.30;99.90;;;;;;4992361;28;20481;-87
2021/01/12 10:40:18;;;;;;;2.80;2.40;;;2.30;99.90;;;;;;5010231;28;20460;-88
2021/01/12 10:46:59;;;;;;;1.50;1.30;;;2.40;99.90;;;;;;4975151;28;20533;-86
2021/01/12 10:49:52;;;;;;;2.17;2.00;;;2.40;99.90;;;;;;4971900;28;21828;-88
2021/01/12 10:52:58;;;;;;;2.23;2.03;;;2.40;99.90;;;;;;5009291;28;20542;-88
2021/01/12 10:56:17;;;;;;;1.93;1.33;;;2.40;99.90;;;;;;5030240;28;20754;-88
2021/01/12 10:58:57;;;;;;;1.87;1.77;;;2.50;99.90;;;;;;5005654;28;20469;-88
2021/01/12 11:01:42;;;;;;;2.50;1.53;;;2.50;99.90;;;;;;4990473;28;20785;-88
2021/01/12 11:04:14;;;;;;;1.60;1.50;;;2.50;99.90;;;;;;4988638;28;20476;-87
2021/01/12 11:06:47;;;;;;;1.97;1.70;;;2.50;99.90;;;;;;4993289;28;21119;-88
2021/01/12 11:09:17;;;;;;;2.33;2.13;;;2.50;99.90;;;;;;4995665;28;20422;-88
2021/01/12 11:11:48;;;;;;;2.17;1.77;;;2.60;99.90;;;;;;4995724;28;20480;-88
2021/01/12 11:14:21;;;;;;;2.23;2.03;;;2.60;99.90;;;;;;4992379;28;20969;-86
2021/01/12 11:16:53;;;;;;;2.47;1.83;;;2.60;99.90;;;;;;4994974;28;20780;-87
2021/01/12 11:19:32;;;;;;;1.37;1.27;;;2.60;99.90;;;;;;4994270;28;20476;-88
2021/01/12 11:22:06;;;;;;;1.50;1.40;;;2.70;99.90;;;;;;4994880;28;20436;-86
2021/01/12 11:24:42;;;;;;;2.70;1.80;;;2.70;99.90;;;;;;4992616;28;20435;-87
2021/01/12 11:27:13;;;;;;;1.70;1.57;;;2.70;99.90;;;;;;4988691;28;20911;-90
2021/01/12 11:29:43;;;;;;;1.97;1.77;;;2.70;99.90;;;;;;4994874;28;20427;-89
2021/01/12 11:32:21;;;;;;;1.77;1.67;;;2.70;99.90;;;;;;4992728;28;20497;-87
2021/01/12 11:34:50;;;;;;;3.20;2.00;;;2.70;99.90;;;;;;4992142;28;20435;-87
2021/01/12 11:37:49;;;;;;;1.80;1.70;;;2.70;99.90;;;;;;5005277;28;20429;-87
2021/01/12 11:40:28;;;;;;;1.30;1.20;;;2.70;99.90;;;;;;4990146;28;20421;-88
2021/01/12 11:43:08;;;;;;;1.67;1.40;;;2.70;99.90;;;;;;4987261;28;20460;-86
2021/01/12 11:45:39;;;;;;;1.90;1.67;;;2.70;99.90;;;;;;4994382;28;20424;-89
2021/01/12 11:48:05;;;;;;;1.80;1.50;;;2.80;99.90;;;;;;4990206;28;20449;-89
2021/01/12 11:50:31;;;;;;;4.47;2.00;;;2.80;99.90;;;;;;4991191;28;20464;-91
2021/01/12 11:52:57;;;;;;;2.17;1.37;;;2.80;99.90;;;;;;4988567;28;20445;-92
2021/01/12 11:55:23;;;;;;;1.60;1.50;;;2.80;99.90;;;;;;4974371;28;20430;-89
2021/01/12 11:57:48;;;;;;;1.40;1.30;;;2.70;99.90;;;;;;4988765;28;20519;-88
2021/01/12 12:00:15;;;;;;;1.20;1.10;;;2.70;99.90;;;;;;4992315;28;20432;-88
2021/01/12 12:02:41;;;;;;;1.90;1.30;;;2.70;99.90;;;;;;4990320;28;20707;-91
2021/01/12 12:05:08;;;;;;;1.40;1.20;;;2.60;99.90;;;;;;4992055;28;20536;-87
2021/01/12 12:07:34;;;;;;;1.50;1.30;;;2.60;99.90;;;;;;4992058;28;20441;-88
2021/01/12 12:10:01;;;;;;;1.90;1.67;;;2.60;99.90;;;;;;4977085;28;20422;-88
2021/01/12 12:12:27;;;;;;;1.33;1.23;;;2.60;99.90;;;;;;4991317;28;20437;-88
2021/01/12 12:14:53;;;;;;;1.20;1.10;;;2.70;99.90;;;;;;4986518;28;20439;-87
2021/01/12 12:17:19;;;;;;;2.10;1.13;;;2.70;99.90;;;;;;4975460;28;20424;-88
2021/01/12 12:19:45;;;;;;;1.20;1.10;;;2.80;99.90;;;;;;4991467;28;20853;-89
2021/01/12 12:22:15;;;;;;;2.47;1.17;;;2.80;99.90;;;;;;4993225;28;20453;-92
2021/01/12 12:24:44;;;;;;;1.93;1.53;;;2.90;99.90;;;;;;4961265;28;20440;-88
2021/01/12 12:27:25;;;;;;;1.70;1.10;;;2.90;99.90;;;;;;5006213;28;20458;-88
2021/01/12 12:29:51;;;;;;;1.03;0.93;;;2.90;99.90;;;;;;4993286;28;20424;-90
2021/01/12 12:32:17;;;;;;;1.10;0.90;;;2.90;99.90;;;;;;4993195;28;20435;-87
2021/01/12 12:34:43;;;;;;;1.33;1.17;;;2.90;99.90;;;;;;4978788;28;20830;-88
2021/01/12 12:37:11;;;;;;;1.30;1.20;;;2.90;99.90;;;;;;4995859;28;20493;-88
2021/01/12 12:39:38;;;;;;;1.80;1.33;;;2.90;99.90;;;;;;4992402;28;20281;-89
2021/01/12 12:42:04;;;;;;;1.30;1.10;;;2.90;99.90;;;;;;4994680;28;20420;-92
2021/01/12 12:44:32;;;;;;;1.17;1.07;;;2.90;99.90;;;;;;4996297;28;20521;-87
2021/01/12 12:46:59;;;;;;;1.70;1.10;;;2.80;99.90;;;;;;4992330;28;20925;-88
2021/01/12 12:49:31;;;;;;;1.00;0.90;;;2.80;99.90;;;;;;4987234;28;20491;-87
2021/01/12 12:52:13;;;;;;;1.73;1.43;;;2.80;99.90;;;;;;4995567;28;20520;-88
2021/01/12 12:54:39;;;;;;;1.03;0.93;;;2.70;99.90;;;;;;4989836;28;20879;-89
2021/01/12 12:57:07;;;;;;;1.50;1.40;;;2.70;99.90;;;;;;4999704;28;20488;-88
2021/01/12 12:59:33;;;;;;;1.13;1.00;;;2.70;99.90;;;;;;4976715;28;20883;-89
2021/01/12 13:02:00;;;;;;;1.53;1.03;;;2.80;99.90;;;;;;4993686;28;20437;-87
2021/01/12 13:04:26;;;;;;;1.00;0.90;;;2.80;99.90;;;;;;4995273;28;20448;-87
2021/01/12 13:06:52;;;;;;;1.70;1.10;;;2.90;99.90;;;;;;4972911;28;20467;-87
2021/01/12 13:09:20;;;;;;;1.20;1.10;;;2.90;99.90;;;;;;4994073;28;20197;-88
2021/01/12 13:11:47;;;;;;;2.60;1.73;;;3.00;99.90;;;;;;4992888;28;20431;-92
2021/01/12 13:14:14;;;;;;;2.90;1.40;;;3.00;99.90;;;;;;5004526;28;21030;-87
2021/01/12 13:16:45;;;;;;;1.57;1.40;;;3.00;99.90;;;;;;4990850;28;20434;-86
2021/01/12 13:19:14;;;;;;;1.10;1.00;;;3.00;99.90;;;;;;4994132;28;20522;-88
2021/01/12 13:22:01;;;;;;;1.07;0.80;;;2.90;99.90;;;;;;4989947;28;20425;-87
2021/01/12 13:24:43;;;;;;;1.00;0.90;;;2.90;99.90;;;;;;4996904;28;20997;-86
2021/01/12 13:27:11;;;;;;;1.03;0.93;;;2.90;99.90;;;;;;4979211;28;20818;-87
2021/01/12 13:29:37;;;;;;;1.10;1.00;;;3.00;99.90;;;;;;4990522;28;20513;-87
2021/01/12 13:32:13;;;;;;;1.20;1.10;;;2.90;99.90;;;;;;4977727;28;20429;-88
2021/01/12 13:34:42;;;;;;;1.30;1.10;;;2.90;99.90;;;;;;4990054;28;20472;-87
2021/01/12 13:37:08;;;;;;;1.30;1.20;;;2.90;99.90;;;;;;4993147;28;20479;-86
2021/01/12 13:39:34;;;;;;;1.30;1.20;;;3.00;99.90;;;;;;4987642;28;20440;-91
2021/01/12 13:42:03;;;;;;;2.60;1.00;;;3.00;99.90;;;;;;4975780;28;20437;-87
2021/01/12 13:44:29;;;;;;;1.70;1.00;;;3.00;99.90;;;;;;4992525;28;20202;-88
2021/01/12 13:46:55;;;;;;;1.20;0.90;;;3.00;99.90;;;;;;4973996;28;20495;-87